RJCM(METAR)
05/26 17:00
METAR RJCM 260800Z 05007KT 9999 FEW015 15/08 Q1006 RMK 1ST015 A2972=
戻る
トップページへ戻る
IMOC Co,.Ltd.